Time;durP1;ratioP1;P1;durP2;ratioP2;P2;SDS_P1;SDS_P2;PMS_P1;PMS_P2;Temp;Humidity;BMP_temperature;BMP_pressure;BME280_temperature;BME280_humidity;BME280_pressure;Samples;Min_cycle;Max_cycle;Signal;HPM_P1;HPM_P2
2021/09/29 00:02:50;;;;;;;3.28;2.10;;;18.20;88.00;;;;;;5011120;28;20045;-65
2021/09/29 00:05:54;;;;;;;2.53;1.98;;;18.20;87.90;;;;;;5010878;28;20045;-65
2021/09/29 00:08:58;;;;;;;3.40;2.28;;;18.20;87.80;;;;;;5009970;28;20041;-65
2021/09/29 00:12:03;;;;;;;3.53;2.50;;;18.20;87.70;;;;;;5010511;28;20041;-65
2021/09/29 00:15:13;;;;;;;2.80;2.38;;;18.10;88.80;;;;;;5010213;28;20503;-65
2021/09/29 00:18:18;;;;;;;4.72;2.30;;;18.00;88.70;;;;;;5009776;28;20049;-65
2021/09/29 00:21:22;;;;;;;4.13;2.50;;;17.90;88.90;;;;;;5010232;28;20057;-65
2021/09/29 00:24:26;;;;;;;3.38;2.17;;;17.90;90.00;;;;;;5010147;28;20071;-65
2021/09/29 00:27:30;;;;;;;3.42;2.40;;;17.80;89.30;;;;;;5010144;28;20041;-65
2021/09/29 00:30:49;;;;;;;5.32;2.45;;;17.70;89.80;;;;;;5010187;28;20052;-65
2021/09/29 00:34:00;;;;;;;7.32;2.80;;;17.70;89.10;;;;;;5010135;28;20040;-65
2021/09/29 00:37:04;;;;;;;5.53;2.80;;;17.70;89.70;;;;;;5009998;28;20044;-65
2021/09/29 00:40:10;;;;;;;7.72;2.80;;;17.70;90.50;;;;;;5009704;28;20053;-66
2021/09/29 00:43:13;;;;;;;4.18;2.60;;;17.60;90.80;;;;;;5009927;28;20503;-65
2021/09/29 00:46:17;;;;;;;3.75;3.05;;;17.60;91.00;;;;;;5010006;28;20044;-66
2021/09/29 00:49:21;;;;;;;3.17;2.65;;;17.60;91.70;;;;;;5009558;28;20511;-65
2021/09/29 00:52:26;;;;;;;4.30;3.30;;;17.60;91.80;;;;;;5016819;28;20048;-65
2021/09/29 00:55:30;;;;;;;5.20;3.08;;;17.40;91.80;;;;;;5029653;28;20052;-65
2021/09/29 00:58:34;;;;;;;4.25;3.33;;;17.40;92.10;;;;;;5029229;28;20041;-65
2021/09/29 01:01:38;;;;;;;3.85;2.88;;;17.40;92.20;;;;;;5026834;28;20064;-64
2021/09/29 01:04:43;;;;;;;3.80;3.03;;;17.30;92.40;;;;;;5019259;28;20499;-65
2021/09/29 01:08:25;;;;;;;4.63;3.03;;;17.20;92.50;;;;;;5020900;28;20396;-65
2021/09/29 01:11:39;;;;;;;;;;;17.20;92.80;;;;;;4994461;28;20033;-65
2021/09/29 01:14:54;;;;;;;6.50;4.60;;;17.20;92.40;;;;;;5009890;28;19932;-65
2021/09/29 01:18:03;;;;;;;7.20;3.35;;;17.00;92.70;;;;;;5009695;28;20389;-65
2021/09/29 01:21:11;;;;;;;4.65;2.90;;;17.00;93.10;;;;;;5025440;28;20048;-65
2021/09/29 01:24:20;;;;;;;5.35;3.05;;;17.00;92.70;;;;;;5029404;28;20064;-65
2021/09/29 01:27:25;;;;;;;3.78;2.70;;;17.00;92.30;;;;;;5029095;28;20037;-65
2021/09/29 01:30:33;;;;;;;3.50;2.65;;;17.00;92.30;;;;;;5030711;28;20075;-65
2021/09/29 01:33:39;;;;;;;2.70;2.13;;;17.00;92.20;;;;;;5033151;28;20424;-65
2021/09/29 01:36:44;;;;;;;4.57;2.50;;;17.00;92.10;;;;;;5028852;28;20034;-65
2021/09/29 01:39:50;;;;;;;3.85;2.80;;;16.90;92.20;;;;;;5013115;28;20040;-65
2021/09/29 01:42:54;;;;;;;2.63;2.05;;;16.90;92.40;;;;;;5013365;28;20045;-65
2021/09/29 01:45:58;;;;;;;4.78;2.33;;;16.80;92.50;;;;;;5013411;28;20064;-65
2021/09/29 01:49:15;;;;;;;3.08;2.30;;;16.80;92.70;;;;;;5012669;28;20033;-65
2021/09/29 01:52:22;;;;;;;4.60;2.97;;;16.80;92.60;;;;;;5001050;28;20037;-65
2021/09/29 01:55:28;;;;;;;3.85;2.45;;;16.80;93.00;;;;;;5012725;28;20044;-65
2021/09/29 01:58:32;;;;;;;3.13;2.25;;;16.70;92.80;;;;;;5012173;28;20041;-65
2021/09/29 02:01:40;;;;;;;3.78;2.35;;;16.80;92.70;;;;;;5012691;28;20407;-65
2021/09/29 02:04:45;;;;;;;4.43;2.95;;;16.70;92.80;;;;;;5013161;28;20037;-65
2021/09/29 02:07:49;;;;;;;7.88;3.03;;;16.70;93.00;;;;;;5012473;28;20045;-65
2021/09/29 02:10:54;;;;;;;2.80;2.20;;;16.60;93.30;;;;;;5016573;28;20057;-65
2021/09/29 02:13:58;;;;;;;6.40;2.80;;;16.60;93.50;;;;;;5032565;28;20044;-65
2021/09/29 02:17:02;;;;;;;4.00;2.83;;;16.50;93.70;;;;;;5031934;28;20048;-65
2021/09/29 02:20:07;;;;;;;3.60;2.63;;;16.50;94.00;;;;;;5031880;28;20400;-65
2021/09/29 02:23:11;;;;;;;3.53;2.58;;;16.50;94.00;;;;;;5032211;28;20048;-65
2021/09/29 02:26:15;;;;;;;3.15;2.38;;;16.50;93.90;;;;;;5031951;28;20045;-66
2021/09/29 02:29:20;;;;;;;5.65;2.97;;;16.60;94.00;;;;;;5031803;28;20052;-64
2021/09/29 02:32:24;;;;;;;3.22;2.70;;;16.50;94.30;;;;;;5031783;28;20044;-65
2021/09/29 02:35:28;;;;;;;3.60;2.38;;;16.50;94.30;;;;;;5031734;28;20212;-65
2021/09/29 02:38:32;;;;;;;4.05;3.03;;;16.40;94.30;;;;;;5031369;28;20052;-65
2021/09/29 02:41:36;;;;;;;5.20;2.60;;;16.40;94.10;;;;;;5031448;28;20053;-65
2021/09/29 02:44:40;;;;;;;5.35;2.75;;;16.40;94.20;;;;;;5032000;28;20041;-66
2021/09/29 02:47:44;;;;;;;6.55;2.60;;;16.40;94.40;;;;;;5031750;28;20423;-65
2021/09/29 02:50:48;;;;;;;4.63;2.80;;;16.30;94.50;;;;;;5019585;28;20048;-65
2021/09/29 02:53:52;;;;;;;5.78;2.83;;;16.30;95.00;;;;;;5031840;28;20048;-64
2021/09/29 02:56:56;;;;;;;5.53;3.65;;;16.20;95.30;;;;;;5031715;28;20048;-65
2021/09/29 03:00:00;;;;;;;4.53;3.30;;;16.00;96.80;;;;;;5030996;28;20449;-65
2021/09/29 03:03:04;;;;;;;6.72;3.45;;;16.10;97.00;;;;;;5031692;28;20483;-65
2021/09/29 03:06:08;;;;;;;4.32;3.25;;;16.10;97.30;;;;;;5031403;28;20056;-64
2021/09/29 03:09:12;;;;;;;6.68;3.15;;;16.10;97.60;;;;;;5030950;28;20044;-65
2021/09/29 03:12:16;;;;;;;7.68;3.38;;;16.10;97.50;;;;;;5016265;28;20048;-65
2021/09/29 03:15:20;;;;;;;4.45;3.00;;;16.00;97.50;;;;;;5011677;28;20082;-66
2021/09/29 03:18:24;;;;;;;4.20;3.10;;;15.90;97.40;;;;;;5011035;28;20049;-66
2021/09/29 03:21:28;;;;;;;4.53;3.10;;;15.90;97.40;;;;;;5011798;28;20049;-65
2021/09/29 03:24:32;;;;;;;6.28;3.38;;;16.00;97.50;;;;;;5011541;28;20480;-65
2021/09/29 03:27:36;;;;;;;4.65;3.40;;;16.00;97.90;;;;;;5011836;28;20416;-65
2021/09/29 03:30:39;;;;;;;4.47;3.22;;;16.00;98.30;;;;;;5011586;28;20044;-65
2021/09/29 03:33:43;;;;;;;4.65;3.00;;;16.00;98.20;;;;;;5011339;28;20052;-65
2021/09/29 03:36:47;;;;;;;5.75;3.17;;;16.00;98.50;;;;;;5011418;28;20045;-66
2021/09/29 03:39:51;;;;;;;5.80;3.13;;;15.90;98.50;;;;;;5010635;28;20113;-64
2021/09/29 03:42:55;;;;;;;3.50;2.50;;;15.90;98.70;;;;;;5011149;28;20045;-65
2021/09/29 03:45:59;;;;;;;5.78;3.50;;;16.00;98.70;;;;;;5010911;28;20057;-65
2021/09/29 03:49:05;;;;;;;4.13;3.03;;;16.00;99.00;;;;;;5010402;28;20049;-65
2021/09/29 03:52:09;;;;;;;4.68;3.10;;;16.00;98.80;;;;;;5010838;28;20053;-65
2021/09/29 03:55:14;;;;;;;4.55;3.00;;;16.00;99.00;;;;;;5010086;28;20498;-65
2021/09/29 03:58:18;;;;;;;3.92;3.17;;;16.00;99.10;;;;;;5010171;28;20064;-65
2021/09/29 04:01:23;;;;;;;6.97;3.40;;;16.00;99.00;;;;;;5010948;28;20045;-64
2021/09/29 04:04:27;;;;;;;7.55;3.28;;;16.00;98.90;;;;;;5010534;28;20045;-65
2021/09/29 04:07:31;;;;;;;4.30;2.90;;;16.00;98.90;;;;;;5010483;28;20048;-65
2021/09/29 04:10:35;;;;;;;5.32;3.47;;;16.00;99.00;;;;;;5011743;28;20056;-65
2021/09/29 04:13:39;;;;;;;5.60;3.20;;;16.00;99.30;;;;;;5030400;28;20056;-65
2021/09/29 04:16:43;;;;;;;3.65;2.85;;;16.00;99.40;;;;;;5030068;28;20479;-65
2021/09/29 04:19:47;;;;;;;4.32;3.30;;;16.00;99.50;;;;;;5029328;28;20045;-65
2021/09/29 04:22:51;;;;;;;4.78;2.95;;;16.00;99.80;;;;;;5030619;28;20045;-65
2021/09/29 04:25:55;;;;;;;6.10;3.35;;;15.90;99.90;;;;;;5030031;28;20056;-65
2021/09/29 04:28:59;;;;;;;5.60;4.00;;;15.60;99.90;;;;;;5029377;28;20056;-65
2021/09/29 04:32:05;;;;;;;4.72;3.38;;;15.40;99.90;;;;;;5017239;28;20044;-65
2021/09/29 04:35:09;;;;;;;6.95;4.82;;;15.20;99.90;;;;;;5030279;28;20053;-65
2021/09/29 04:38:13;;;;;;;5.85;4.07;;;15.00;99.90;;;;;;5029994;28;20048;-66
2021/09/29 04:41:18;;;;;;;8.45;4.53;;;14.80;99.90;;;;;;5030004;28;20460;-64
2021/09/29 04:44:23;;;;;;;5.80;4.00;;;14.70;99.90;;;;;;5029922;28;20049;-65
2021/09/29 04:47:27;;;;;;;6.80;3.80;;;14.70;99.90;;;;;;5029832;28;20048;-65
2021/09/29 04:50:32;;;;;;;6.20;3.60;;;14.60;99.90;;;;;;5029819;28;20032;-65
2021/09/29 04:53:36;;;;;;;7.55;4.43;;;14.60;99.90;;;;;;5030004;28;20215;-65
2021/09/29 04:56:43;;;;;;;10.07;4.68;;;14.60;99.90;;;;;;5029792;28;20376;-65
2021/09/29 04:59:47;;;;;;;5.70;3.95;;;14.60;99.90;;;;;;5029745;28;20048;-65
2021/09/29 05:02:52;;;;;;;5.18;3.60;;;14.60;99.90;;;;;;5017977;28;20053;-65
2021/09/29 05:05:57;;;;;;;5.75;3.72;;;14.60;99.90;;;;;;5032041;28;20053;-65
2021/09/29 05:09:03;;;;;;;4.95;3.72;;;14.70;99.90;;;;;;5031442;28;20048;-65
2021/09/29 05:12:26;;;;;;;7.22;4.13;;;14.80;99.90;;;;;;5028692;28;20044;-65
2021/09/29 05:15:30;;;;;;;4.65;3.80;;;14.90;99.90;;;;;;5033945;28;20044;-65
2021/09/29 05:18:34;;;;;;;5.75;3.67;;;14.90;99.90;;;;;;5033252;28;20068;-65
2021/09/29 05:21:38;;;;;;;11.27;4.95;;;15.00;99.90;;;;;;5033843;28;20052;-65
2021/09/29 05:24:42;;;;;;;9.57;4.65;;;15.10;99.90;;;;;;5033457;28;20522;-65
2021/09/29 05:27:48;;;;;;;8.57;3.47;;;15.20;99.90;;;;;;5033451;28;20503;-65
2021/09/29 05:30:52;;;;;;;6.95;4.10;;;15.20;99.90;;;;;;5032538;28;20036;-65
2021/09/29 05:33:56;;;;;;;6.05;4.70;;;15.40;99.90;;;;;;5033153;28;20045;-65
2021/09/29 05:37:00;;;;;;;7.47;4.30;;;15.40;99.90;;;;;;5033221;28;20056;-65
2021/09/29 05:40:04;;;;;;;9.98;4.72;;;15.50;99.90;;;;;;5032617;28;20049;-64
2021/09/29 05:43:10;;;;;;;7.28;4.50;;;15.60;99.90;;;;;;5021271;28;20117;-65
2021/09/29 05:46:14;;;;;;;9.45;4.90;;;15.80;99.90;;;;;;5033036;28;20307;-64
2021/09/29 05:49:19;;;;;;;9.18;5.15;;;15.90;99.90;;;;;;5033261;28;20503;-65
2021/09/29 05:52:24;;;;;;;16.02;5.28;;;16.00;99.90;;;;;;5029993;28;20044;-65
2021/09/29 05:55:27;;;;;;;10.73;4.85;;;16.00;99.90;;;;;;5032861;28;20044;-65
2021/09/29 05:58:32;;;;;;;7.32;4.85;;;16.10;99.90;;;;;;5032776;28;20044;-65
2021/09/29 06:01:36;;;;;;;10.35;4.82;;;16.20;99.90;;;;;;5014321;28;20045;-65
2021/09/29 06:04:41;;;;;;;10.73;4.93;;;16.20;99.90;;;;;;5013093;28;20064;-65
2021/09/29 06:07:45;;;;;;;5.53;4.50;;;16.30;99.90;;;;;;5013151;28;20037;-65
2021/09/29 06:10:50;;;;;;;10.48;5.05;;;16.30;99.90;;;;;;5018068;28;20049;-66
2021/09/29 06:13:54;;;;;;;8.07;4.57;;;16.40;99.90;;;;;;5019595;28;20048;-64
2021/09/29 06:17:01;;;;;;;7.60;5.30;;;16.40;99.90;;;;;;5019307;28;20057;-65
2021/09/29 06:20:07;;;;;;;10.20;4.93;;;16.50;99.90;;;;;;5012367;28;20045;-65
2021/09/29 06:23:14;;;;;;;10.48;5.30;;;16.60;99.90;;;;;;5021799;28;20044;-66
2021/09/29 06:26:19;;;;;;;7.30;4.70;;;16.80;99.90;;;;;;5031753;28;20045;-65
2021/09/29 06:29:23;;;;;;;9.57;5.25;;;17.20;99.90;;;;;;5022537;28;20045;-65
2021/09/29 06:32:28;;;;;;;9.52;4.40;;;17.90;99.90;;;;;;5022689;28;20231;-66
2021/09/29 06:35:32;;;;;;;8.23;4.63;;;18.60;99.90;;;;;;5025466;28;20044;-65
2021/09/29 06:38:36;;;;;;;6.55;3.85;;;19.20;99.90;;;;;;5024857;28;20060;-65
2021/09/29 06:41:44;;;;;;;6.43;4.03;;;20.60;99.90;;;;;;5013347;28;20087;-65
2021/09/29 06:44:49;;;;;;;7.25;3.40;;;22.00;97.80;;;;;;4997104;28;20053;-66
2021/09/29 06:47:53;;;;;;;4.80;3.30;;;22.00;96.80;;;;;;5015918;28;20044;-65
2021/09/29 06:50:57;;;;;;;7.85;3.70;;;22.10;96.20;;;;;;5012061;28;20045;-65
2021/09/29 06:54:01;;;;;;;5.03;3.47;;;21.90;96.10;;;;;;5025034;28;20056;-65
2021/09/29 06:57:07;;;;;;;7.57;3.55;;;21.60;97.00;;;;;;5018622;28;20041;-65
2021/09/29 07:00:13;;;;;;;10.27;4.45;;;21.30;97.20;;;;;;5021780;28;20036;-65
2021/09/29 07:03:17;;;;;;;11.52;6.22;;;21.40;97.20;;;;;;5013463;28;20056;-66
2021/09/29 07:06:21;;;;;;;30.38;14.77;;;22.50;96.20;;;;;;5019137;28;20041;-66
2021/09/29 07:09:25;;;;;;;22.38;12.50;;;24.40;94.00;;;;;;5020352;28;20072;-65
2021/09/29 07:12:29;;;;;;;24.75;12.88;;;26.70;91.90;;;;;;5019276;28;20044;-65
2021/09/29 07:15:34;;;;;;;19.67;11.18;;;28.60;87.80;;;;;;5030810;28;20045;-64
2021/09/29 07:18:39;;;;;;;22.73;11.30;;;29.90;82.00;;;;;;5031147;28;20155;-64
2021/09/29 07:21:43;;;;;;;23.63;13.93;;;30.20;78.80;;;;;;5006721;28;20064;-64
2021/09/29 07:24:47;;;;;;;22.90;11.40;;;27.00;80.10;;;;;;5020581;28;20045;-64
2021/09/29 07:27:50;;;;;;;15.68;8.75;;;25.80;82.10;;;;;;5007475;28;20041;-64
2021/09/29 07:30:56;;;;;;;16.23;9.43;;;27.40;81.50;;;;;;5028854;28;20044;-64
2021/09/29 07:34:00;;;;;;;15.30;9.55;;;28.80;79.70;;;;;;5031101;28;20052;-64
2021/09/29 07:37:05;;;;;;;10.48;6.75;;;30.30;76.80;;;;;;5018606;28;20052;-64
2021/09/29 07:40:09;;;;;;;16.15;9.73;;;30.20;76.70;;;;;;5029801;28;20052;-65
2021/09/29 07:43:13;;;;;;;9.70;4.93;;;31.70;73.20;;;;;;5018753;28;20425;-65
2021/09/29 07:55:47;;;;;;;6.45;2.75;;;27.20;82.10;;;;;;5013997;28;20041;-64
2021/09/29 07:58:51;;;;;;;3.80;2.40;;;28.60;80.10;;;;;;5026207;28;20048;-64
2021/09/29 08:01:55;;;;;;;3.83;2.65;;;29.60;77.80;;;;;;5010545;28;20045;-65
2021/09/29 08:05:02;;;;;;;4.90;3.00;;;29.90;77.10;;;;;;5015506;28;20044;-64
2021/09/29 08:08:06;;;;;;;3.55;2.80;;;30.20;75.30;;;;;;5019742;28;20040;-64
2021/09/29 08:11:11;;;;;;;5.13;3.42;;;30.10;76.30;;;;;;5029488;28;20389;-65
2021/09/29 08:14:17;;;;;;;5.68;3.90;;;31.10;74.60;;;;;;5019005;28;20480;-64
2021/09/29 08:17:22;;;;;;;3.80;2.80;;;33.00;71.80;;;;;;5013189;28;20400;-64
2021/09/29 08:20:28;;;;;;;4.40;2.90;;;34.00;71.00;;;;;;5016443;28;20059;-64
2021/09/29 08:23:36;;;;;;;4.82;3.17;;;32.40;71.20;;;;;;5010633;28;20033;-64
2021/09/29 08:33:00;;;;;;;6.38;3.03;;;34.10;69.40;;;;;;5011606;28;20529;-64
2021/09/29 08:39:33;;;;;;;5.25;3.00;;;33.80;69.30;;;;;;5019627;28;20052;-65
2021/09/29 08:45:51;;;;;;;5.78;3.25;;;35.10;67.60;;;;;;5028234;28;20384;-65
2021/09/29 08:49:03;;;;;;;3.80;3.00;;;34.40;67.20;;;;;;5025915;28;20045;-65
2021/09/29 09:18:21;;;;;;;4.28;2.60;;;36.50;58.30;;;;;;5020915;28;20056;-65
2021/09/29 09:21:28;;;;;;;6.43;2.63;;;36.40;61.40;;;;;;5024111;28;20056;-65
2021/09/29 09:24:34;;;;;;;6.15;2.40;;;36.60;60.00;;;;;;5020793;28;20067;-65
2021/09/29 09:27:47;;;;;;;4.97;2.38;;;36.60;59.00;;;;;;5020763;28;20048;-65
2021/09/29 09:30:51;;;;;;;3.50;2.53;;;38.80;58.30;;;;;;5013343;28;20049;-66
2021/09/29 09:34:01;;;;;;;3.90;2.42;;;40.20;56.40;;;;;;5012986;28;20395;-66
2021/09/29 09:37:14;;;;;;;4.65;2.40;;;42.10;55.20;;;;;;5013906;28;20053;-66
2021/09/29 09:40:21;;;;;;;4.78;2.17;;;43.40;53.70;;;;;;5019914;28;20407;-66
2021/09/29 09:43:26;;;;;;;2.83;2.03;;;43.80;53.10;;;;;;5016481;28;20595;-66
2021/09/29 09:46:31;;;;;;;6.53;3.10;;;45.50;52.00;;;;;;5015862;28;20420;-65
2021/09/29 09:49:50;;;;;;;2.63;1.50;;;45.00;50.50;;;;;;5016026;28;20484;-66
2021/09/29 09:52:54;;;;;;;4.43;1.60;;;44.30;49.40;;;;;;5021419;28;20491;-66
2021/09/29 09:55:59;;;;;;;4.82;1.70;;;45.60;49.50;;;;;;5016508;28;20049;-66
2021/09/29 09:59:07;;;;;;;3.55;1.80;;;46.50;48.90;;;;;;5020898;28;20499;-66
2021/09/29 10:02:11;;;;;;;2.22;1.52;;;41.50;50.00;;;;;;5014173;28;20033;-66
2021/09/29 10:05:20;;;;;;;1.95;1.50;;;43.00;50.20;;;;;;5029630;28;20510;-66
2021/09/29 10:08:28;;;;;;;2.92;1.83;;;43.40;48.90;;;;;;5014409;28;20064;-65
2021/09/29 10:11:42;;;;;;;4.47;1.63;;;42.90;49.30;;;;;;5012813;28;20040;-66
2021/09/29 10:27:58;;;;;;;4.72;1.83;;;45.30;48.10;;;;;;5014863;28;20045;-65
2021/09/29 10:41:26;;;;;;;3.05;2.05;;;43.10;49.90;;;;;;5019556;28;20068;-66
2021/09/29 10:45:02;;;;;;;2.42;2.13;;;45.10;48.80;;;;;;5027843;28;20526;-65
2021/09/29 10:48:21;;;;;;;6.20;1.90;;;45.50;48.30;;;;;;5018180;28;20063;-65
2021/09/29 11:05:30;;;;;;;2.30;1.70;;;46.30;46.90;;;;;;5022551;28;20037;-65
2021/09/29 11:09:16;;;;;;;2.75;1.83;;;45.60;47.50;;;;;;5019851;28;20391;-66
2021/09/29 12:10:21;;;;;;;3.83;3.05;;;47.80;46.00;;;;;;5026825;28;20064;-65
2021/09/29 12:13:38;;;;;;;4.50;3.20;;;47.20;46.00;;;;;;5014559;28;20045;-67
2021/09/29 12:16:43;;;;;;;5.82;3.38;;;46.40;46.80;;;;;;5010393;28;20061;-67
2021/09/29 12:19:53;;;;;;;5.78;4.07;;;46.70;46.70;;;;;;5013334;28;20049;-66
2021/09/29 12:23:00;;;;;;;4.25;3.30;;;46.20;47.20;;;;;;5015897;28;20045;-66
2021/09/29 12:26:30;;;;;;;4.22;3.50;;;46.60;46.70;;;;;;5015373;28;20506;-66
2021/09/29 12:29:35;;;;;;;5.07;4.03;;;47.10;47.60;;;;;;5020872;28;20052;-66
2021/09/29 12:32:57;;;;;;;6.68;4.13;;;46.40;46.80;;;;;;5019059;28;20048;-65
2021/09/29 12:36:01;;;;;;;5.93;4.88;;;45.00;48.20;;;;;;4990641;28;20044;-65
2021/09/29 12:39:25;;;;;;;5.82;4.80;;;44.50;48.90;;;;;;5009860;28;20060;-66
2021/09/29 12:42:34;;;;;;;6.78;4.40;;;44.70;48.50;;;;;;5011061;28;20041;-66
2021/09/29 12:45:42;;;;;;;6.53;4.68;;;44.90;48.40;;;;;;5028463;28;20045;-66
2021/09/29 12:48:48;;;;;;;5.85;4.68;;;46.00;48.10;;;;;;5011703;28;20041;-65
2021/09/29 12:51:59;;;;;;;9.82;4.93;;;46.10;47.90;;;;;;5030557;28;20052;-65
2021/09/29 12:55:04;;;;;;;5.47;4.50;;;44.90;48.80;;;;;;5011679;28;20037;-66
2021/09/29 12:58:09;;;;;;;5.07;4.40;;;42.90;49.70;;;;;;5017647;28;20396;-66
2021/09/29 13:01:14;;;;;;;5.25;4.68;;;43.10;49.70;;;;;;5010555;28;20045;-65
2021/09/29 13:04:22;;;;;;;5.13;4.63;;;43.30;49.60;;;;;;4987278;28;20786;-65
2021/09/29 13:07:26;;;;;;;6.70;4.80;;;43.60;49.80;;;;;;5019805;28;20041;-66
2021/09/29 13:10:30;;;;;;;5.03;4.53;;;44.00;49.70;;;;;;5011174;28;20057;-65
2021/09/29 13:13:35;;;;;;;6.45;4.63;;;43.90;49.20;;;;;;5012051;28;20045;-65
2021/09/29 13:16:39;;;;;;;6.60;4.43;;;43.90;48.90;;;;;;5020441;28;20048;-65
2021/09/29 13:19:52;;;;;;;5.72;5.18;;;43.50;49.70;;;;;;4997829;28;20045;-65
2021/09/29 13:23:04;;;;;;;7.82;5.07;;;42.90;50.20;;;;;;5013409;28;20048;-66
2021/09/29 13:39:23;;;;;;;6.45;5.45;;;41.40;51.10;;;;;;5003152;28;20040;-66
2021/09/29 13:42:27;;;;;;;10.30;5.43;;;41.00;51.10;;;;;;5021281;28;20040;-65
2021/09/29 13:45:31;;;;;;;6.15;5.40;;;41.60;51.10;;;;;;5025167;28;20037;-66
2021/09/29 13:48:35;;;;;;;5.65;5.15;;;40.70;51.10;;;;;;5010242;28;20040;-66
2021/09/29 13:51:45;;;;;;;5.80;4.90;;;40.50;51.70;;;;;;5002321;28;20033;-65
2021/09/29 13:54:51;;;;;;;5.75;5.13;;;40.70;51.40;;;;;;5015395;28;20483;-65
2021/09/29 13:58:14;;;;;;;9.27;5.72;;;40.20;52.20;;;;;;5015977;28;20131;-66
2021/09/29 14:29:31;;;;;;;7.57;6.60;;;36.40;55.50;;;;;;5011896;28;20073;-66
2021/09/29 14:32:48;;;;;;;9.40;7.55;;;36.10;57.10;;;;;;5017166;28;21013;-66
2021/09/29 14:35:52;;;;;;;7.45;6.75;;;36.70;56.80;;;;;;5030491;28;20056;-65
2021/09/29 14:38:56;;;;;;;7.75;6.95;;;37.30;56.10;;;;;;5011312;28;20523;-65
2021/09/29 14:42:01;;;;;;;8.45;6.88;;;37.60;56.60;;;;;;5013483;28;20503;-65
2021/09/29 14:45:05;;;;;;;8.65;7.25;;;37.30;56.10;;;;;;5013091;28;20044;-65
2021/09/29 14:48:09;;;;;;;8.20;6.60;;;36.80;56.50;;;;;;5024897;28;20396;-64
2021/09/29 14:51:13;;;;;;;12.40;7.10;;;36.10;56.90;;;;;;5014171;28;20061;-65
2021/09/29 14:54:17;;;;;;;8.55;7.45;;;35.20;57.90;;;;;;5012132;28;20053;-64
2021/09/29 14:57:22;;;;;;;8.52;7.47;;;34.70;59.30;;;;;;5012820;28;20393;-64
2021/09/29 15:00:30;;;;;;;8.27;7.47;;;34.70;60.30;;;;;;5028913;28;20045;-65
2021/09/29 15:03:35;;;;;;;9.63;7.72;;;34.70;59.80;;;;;;5014850;28;20507;-64
2021/09/29 15:06:39;;;;;;;9.10;8.20;;;34.40;60.60;;;;;;5025857;28;20040;-64
2021/09/29 15:09:43;;;;;;;10.40;8.40;;;33.90;61.50;;;;;;5014842;28;20045;-64
2021/09/29 15:12:48;;;;;;;10.73;8.20;;;33.20;63.10;;;;;;5014908;28;20480;-64
2021/09/29 15:16:06;;;;;;;11.52;8.35;;;32.40;63.80;;;;;;5023175;28;20064;-64
2021/09/29 15:22:35;;;;;;;12.00;8.30;;;31.80;65.90;;;;;;5026436;28;20041;-64
2021/09/29 15:26:16;;;;;;;10.75;8.65;;;31.40;67.00;;;;;;5018914;28;20036;-64
2021/09/29 15:56:21;;;;;;;11.45;8.70;;;29.20;72.90;;;;;;5030496;28;20040;-65
2021/09/29 16:02:40;;;;;;;10.82;8.00;;;28.60;74.30;;;;;;5030184;28;20048;-68
2021/09/29 16:32:02;;;;;;;14.85;10.88;;;26.80;80.10;;;;;;5010091;28;20044;-66
2021/09/29 16:35:20;;;;;;;19.90;11.73;;;26.50;81.20;;;;;;5010077;28;20512;-65
2021/09/29 16:38:24;;;;;;;18.10;12.23;;;26.20;81.50;;;;;;5017174;28;20045;-66
2021/09/29 16:41:28;;;;;;;16.13;11.13;;;25.90;82.40;;;;;;5028114;28;20350;-65
2021/09/29 16:44:32;;;;;;;18.60;11.45;;;25.70;83.70;;;;;;5024893;28;20061;-65
2021/09/29 16:47:36;;;;;;;18.95;10.88;;;25.40;84.50;;;;;;5029411;28;20515;-66
2021/09/29 16:51:25;;;;;;;18.08;12.18;;;25.20;85.30;;;;;;5029674;28;20052;-66
2021/09/29 16:54:11;;;;;;;14.32;11.48;;;25.00;86.20;;;;;;5030015;28;20391;-66
2021/09/29 16:57:18;;;;;;;15.80;11.15;;;24.90;87.10;;;;;;5010002;28;20041;-65
2021/09/29 17:00:27;;;;;;;13.75;11.30;;;24.70;88.20;;;;;;5026703;28;20056;-66
2021/09/29 17:03:31;;;;;;;15.25;12.55;;;24.60;89.00;;;;;;5034370;28;20044;-66
2021/09/29 17:06:36;;;;;;;15.82;11.60;;;24.50;90.00;;;;;;5034311;28;20384;-66
2021/09/29 17:09:40;;;;;;;15.85;11.57;;;24.40;90.40;;;;;;5033298;28;20064;-66
2021/09/29 17:12:46;;;;;;;15.73;11.93;;;24.30;90.70;;;;;;5033593;28;20443;-66
2021/09/29 17:15:56;;;;;;;18.23;12.60;;;24.10;91.10;;;;;;5033556;28;20041;-66
2021/09/29 17:19:04;;;;;;;18.58;13.25;;;24.10;91.20;;;;;;5033330;28;20048;-66
2021/09/29 17:22:08;;;;;;;16.02;12.18;;;24.00;91.50;;;;;;5017036;28;20048;-65
2021/09/29 17:25:13;;;;;;;18.08;12.80;;;23.90;91.90;;;;;;5019308;28;20032;-65
2021/09/29 17:28:19;;;;;;;20.58;12.80;;;23.80;92.20;;;;;;5003384;28;20049;-65
2021/09/29 17:34:41;;;;;;;18.02;13.25;;;23.70;92.90;;;;;;5028167;28;20116;-65
2021/09/29 17:54:32;;;;;;;20.60;11.48;;;23.40;95.00;;;;;;5003703;28;20385;-65
2021/09/29 17:57:36;;;;;;;16.08;11.90;;;23.40;95.30;;;;;;5013094;28;20045;-65
2021/09/29 18:00:44;;;;;;;16.10;11.75;;;23.20;95.60;;;;;;5011753;28;20048;-65
2021/09/29 18:03:57;;;;;;;17.33;11.05;;;23.10;96.10;;;;;;5013287;28;20037;-65
2021/09/29 18:10:13;;;;;;;20.17;11.30;;;22.80;97.50;;;;;;5012627;28;20053;-65
2021/09/29 18:13:19;;;;;;;15.55;10.73;;;22.60;98.30;;;;;;5011753;28;20102;-65
2021/09/29 18:16:24;;;;;;;17.67;10.70;;;22.60;99.10;;;;;;5012868;28;20049;-66
2021/09/29 18:19:29;;;;;;;15.23;10.88;;;22.50;99.80;;;;;;5012201;28;20041;-66
2021/09/29 18:22:34;;;;;;;17.05;9.88;;;22.50;99.90;;;;;;5012780;28;20045;-65
2021/09/29 18:25:39;;;;;;;16.92;10.07;;;22.40;99.90;;;;;;5012631;28;20494;-65
2021/09/29 18:28:46;;;;;;;14.95;9.73;;;22.30;99.90;;;;;;5011893;28;20056;-65
2021/09/29 18:31:51;;;;;;;17.00;9.73;;;22.30;99.90;;;;;;5012641;28;20045;-65
2021/09/29 18:34:57;;;;;;;13.82;9.27;;;22.20;99.90;;;;;;5012440;28;20060;-65
2021/09/29 18:38:04;;;;;;;13.55;9.60;;;22.20;99.90;;;;;;5011967;28;20061;-65
2021/09/29 18:41:09;;;;;;;18.77;9.68;;;22.20;99.90;;;;;;5000268;28;20057;-65
2021/09/29 18:44:15;;;;;;;15.32;9.63;;;22.20;99.90;;;;;;5012140;28;20040;-65
2021/09/29 18:47:19;;;;;;;13.90;9.13;;;22.00;99.90;;;;;;5012194;28;20049;-65
2021/09/29 18:50:23;;;;;;;11.70;8.00;;;22.00;99.90;;;;;;5011601;28;20053;-66
2021/09/29 18:53:31;;;;;;;10.90;7.50;;;21.90;99.90;;;;;;5011674;28;20037;-66
2021/09/29 19:09:51;;;;;;;10.88;7.60;;;21.70;99.90;;;;;;5011181;28;20515;-65
2021/09/29 19:12:56;;;;;;;13.20;7.60;;;21.60;99.90;;;;;;5011386;28;20389;-65
2021/09/29 19:16:04;;;;;;;12.50;8.25;;;21.50;99.90;;;;;;5011335;28;20503;-65
2021/09/29 19:19:08;;;;;;;13.55;7.90;;;21.50;99.90;;;;;;5010763;28;20041;-65
2021/09/29 19:22:12;;;;;;;13.10;7.85;;;21.40;99.90;;;;;;5011249;28;20037;-65
2021/09/29 19:25:16;;;;;;;15.82;7.65;;;21.30;99.90;;;;;;5011023;28;20048;-65
2021/09/29 19:28:38;;;;;;;17.83;7.93;;;21.30;99.90;;;;;;5010772;28;20048;-65
2021/09/29 19:31:42;;;;;;;13.93;7.78;;;21.10;99.90;;;;;;5011363;28;20068;-66
2021/09/29 19:34:46;;;;;;;13.52;7.07;;;21.10;99.90;;;;;;5029903;28;20044;-66
2021/09/29 19:37:51;;;;;;;15.77;8.40;;;21.00;99.90;;;;;;5014377;28;20072;-66
2021/09/29 19:40:55;;;;;;;15.52;7.68;;;21.00;99.90;;;;;;5010270;28;20052;-66
2021/09/29 19:44:04;;;;;;;12.23;7.00;;;20.90;99.90;;;;;;5012900;28;20052;-65
2021/09/29 19:47:17;;;;;;;12.60;6.97;;;20.80;99.90;;;;;;5015101;28;20048;-66
2021/09/29 19:50:40;;;;;;;13.88;6.88;;;20.80;99.90;;;;;;5004887;28;20038;-66
2021/09/29 20:07:32;;;;;;;;;;;20.60;99.90;;;;;;5016617;28;19936;-65
2021/09/29 20:10:37;;;;;;;9.95;6.60;;;20.50;99.90;;;;;;5022464;28;20022;-65
2021/09/29 20:13:42;;;;;;;9.60;6.72;;;20.50;99.90;;;;;;5026275;28;20044;-65
2021/09/29 20:16:51;;;;;;;22.52;12.65;;;20.40;99.90;;;;;;5006265;28;20041;-65
2021/09/29 20:20:01;;;;;;;14.13;9.32;;;20.40;99.90;;;;;;5016725;28;20044;-65
2021/09/29 20:23:06;;;;;;;21.08;9.18;;;20.30;99.90;;;;;;5023964;28;20523;-65
2021/09/29 20:26:11;;;;;;;15.63;9.40;;;20.20;99.90;;;;;;5014949;28;20044;-66
2021/09/29 20:29:15;;;;;;;15.30;9.38;;;20.10;99.90;;;;;;5017555;28;20055;-66
2021/09/29 20:32:20;;;;;;;20.02;9.32;;;20.00;99.90;;;;;;5005696;28;20496;-66
2021/09/29 20:45:33;;;;;;;17.20;8.90;;;19.80;99.90;;;;;;5019886;28;20317;-65
2021/09/29 20:48:37;;;;;;;32.75;10.15;;;19.70;99.90;;;;;;5018609;28;20392;-66
2021/09/29 20:51:41;;;;;;;14.32;8.52;;;19.70;99.90;;;;;;5017283;28;20061;-66
2021/09/29 20:54:45;;;;;;;14.45;7.80;;;19.70;99.90;;;;;;5018886;28;20499;-66
2021/09/29 20:57:50;;;;;;;12.13;7.85;;;19.60;99.90;;;;;;5022055;28;20388;-66
2021/09/29 21:00:55;;;;;;;15.55;8.07;;;19.60;99.90;;;;;;5018598;28;20041;-66
2021/09/29 21:03:59;;;;;;;12.77;7.80;;;19.50;99.90;;;;;;5021688;28;20048;-66
2021/09/29 21:07:03;;;;;;;13.13;7.53;;;19.40;99.90;;;;;;5025327;28;20057;-65
2021/09/29 21:10:10;;;;;;;10.75;7.25;;;19.40;99.90;;;;;;5016779;28;20041;-66
2021/09/29 21:13:15;;;;;;;12.95;7.60;;;19.30;99.90;;;;;;5017347;28;20125;-65